Time;durP1;ratioP1;P1;durP2;ratioP2;P2;SDS_P1;SDS_P2;PMS_P1;PMS_P2;Temp;Humidity;BMP_temperature;BMP_pressure;BME280_temperature;BME280_humidity;BME280_pressure;Samples;Min_cycle;Max_cycle;Signal;HPM_P1;HPM_P2
2023/06/03 00:02:11;;;;;;;9.25;6.43;;;;;;;;;;6211891;23;20731;-79
2023/06/03 00:04:41;;;;;;;13.07;7.28;;;;;;;;;;6211840;23;20008;-79
2023/06/03 00:07:08;;;;;;;13.88;7.32;;;;;;;;;;6211822;23;20020;-79
2023/06/03 00:09:34;;;;;;;8.80;6.28;;;;;;;;;;6211612;23;20019;-78
2023/06/03 00:12:00;;;;;;;10.07;6.43;;;;;;;;;;6211070;23;20005;-79
2023/06/03 00:14:26;;;;;;;13.27;6.70;;;;;;;;;;6211126;23;20011;-79
2023/06/03 00:16:52;;;;;;;9.55;6.20;;;;;;;;;;6211566;23;20005;-79
2023/06/03 00:19:18;;;;;;;10.10;6.93;;;;;;;;;;6211700;23;20008;-79
2023/06/03 00:21:45;;;;;;;11.35;7.53;;;;;;;;;;6211638;23;20012;-79
2023/06/03 00:24:12;;;;;;;14.23;8.32;;;;;;;;;;6209164;23;20009;-80
2023/06/03 00:26:38;;;;;;;12.43;8.82;;;;;;;;;;6211494;23;20016;-79
2023/06/03 00:29:04;;;;;;;11.90;9.15;;;;;;;;;;6211274;23;20012;-79
2023/06/03 00:31:30;;;;;;;10.65;7.82;;;;;;;;;;6211795;23;20032;-79
2023/06/03 00:33:56;;;;;;;12.90;9.82;;;;;;;;;;6210864;23;20055;-78
2023/06/03 00:36:22;;;;;;;14.18;9.90;;;;;;;;;;6211551;23;20004;-79
2023/06/03 00:38:48;;;;;;;12.95;9.00;;;;;;;;;;6210999;23;20076;-79
2023/06/03 00:41:14;;;;;;;12.35;7.85;;;;;;;;;;6210101;23;20099;-79
2023/06/03 00:43:40;;;;;;;19.40;9.65;;;;;;;;;;6210908;23;20004;-79
2023/06/03 00:46:07;;;;;;;15.93;7.78;;;;;;;;;;6211844;23;20019;-79
2023/06/03 00:48:33;;;;;;;13.95;8.15;;;;;;;;;;6209693;23;20423;-79
2023/06/03 00:50:59;;;;;;;18.75;15.13;;;;;;;;;;6210295;23;20482;-79
2023/06/03 00:53:26;;;;;;;21.15;17.15;;;;;;;;;;6209131;23;20047;-79
2023/06/03 00:55:52;;;;;;;17.92;15.35;;;;;;;;;;6210883;23;20083;-79
2023/06/03 00:58:18;;;;;;;11.20;9.48;;;;;;;;;;6211540;23;20009;-79
2023/06/03 01:00:44;;;;;;;16.35;11.20;;;;;;;;;;6210821;23;20705;-79
2023/06/03 01:03:13;;;;;;;13.40;11.82;;;;;;;;;;6209436;23;20036;-79
2023/06/03 01:05:40;;;;;;;15.13;10.57;;;;;;;;;;6210859;23;20486;-79
2023/06/03 01:08:13;;;;;;;13.20;9.15;;;;;;;;;;6209207;23;20534;-79
2023/06/03 01:10:45;;;;;;;16.75;13.07;;;;;;;;;;6210101;23;20016;-79
2023/06/03 01:13:11;;;;;;;;;;;;;;;;;;6211823;23;20001;-79
2023/06/03 01:15:40;;;;;;;16.60;9.32;;;;;;;;;;6208930;23;19912;-79
2023/06/03 01:18:06;;;;;;;16.30;8.93;;;;;;;;;;6211322;23;20278;-79
2023/06/03 01:20:33;;;;;;;16.42;9.68;;;;;;;;;;6209627;23;20317;-79
2023/06/03 01:23:04;;;;;;;15.02;9.52;;;;;;;;;;6210483;23;20013;-79
2023/06/03 01:25:30;;;;;;;10.10;8.18;;;;;;;;;;6211164;23;20644;-79
2023/06/03 01:27:57;;;;;;;13.93;8.38;;;;;;;;;;6210654;23;20015;-79
2023/06/03 01:30:23;;;;;;;11.00;9.80;;;;;;;;;;6211122;23;20024;-79
2023/06/03 01:32:50;;;;;;;17.17;13.20;;;;;;;;;;6210715;23;20012;-79
2023/06/03 01:35:16;;;;;;;20.50;14.57;;;;;;;;;;6210829;23;20004;-78
2023/06/03 01:37:42;;;;;;;16.42;11.40;;;;;;;;;;6210748;23;20001;-79
2023/06/03 01:40:10;;;;;;;17.20;12.95;;;;;;;;;;6209608;23;20015;-78
2023/06/03 01:42:36;;;;;;;19.63;12.85;;;;;;;;;;6210571;23;20015;-79
2023/06/03 01:45:03;;;;;;;12.02;8.23;;;;;;;;;;6211142;23;20013;-79
2023/06/03 01:47:28;;;;;;;14.68;9.32;;;;;;;;;;6210597;23;20017;-80
2023/06/03 01:49:55;;;;;;;15.98;10.23;;;;;;;;;;6211163;23;20059;-80
2023/06/03 01:52:21;;;;;;;15.35;8.70;;;;;;;;;;6210532;23;20069;-79
2023/06/03 01:54:47;;;;;;;9.40;7.30;;;;;;;;;;6211188;23;20005;-79
2023/06/03 01:57:13;;;;;;;12.98;9.40;;;;;;;;;;6210514;23;20004;-79
2023/06/03 01:59:40;;;;;;;9.05;7.78;;;;;;;;;;6210766;23;20441;-79
2023/06/03 02:02:06;;;;;;;13.88;9.80;;;;;;;;;;6208984;23;20016;-79
2023/06/03 02:04:32;;;;;;;13.10;9.15;;;;;;;;;;6211097;23;20013;-79
2023/06/03 02:06:59;;;;;;;10.32;7.93;;;;;;;;;;6209456;23;20012;-79
2023/06/03 02:09:27;;;;;;;13.45;9.25;;;;;;;;;;6209232;23;20528;-79
2023/06/03 02:11:53;;;;;;;11.00;7.35;;;;;;;;;;6209270;23;20100;-79
2023/06/03 02:14:19;;;;;;;12.60;6.95;;;;;;;;;;6209276;23;20032;-79
2023/06/03 02:16:46;;;;;;;13.10;10.50;;;;;;;;;;6208782;23;20008;-79
2023/06/03 02:19:14;;;;;;;18.98;13.75;;;;;;;;;;6209138;23;20139;-79
2023/06/03 02:21:40;;;;;;;17.98;11.73;;;;;;;;;;6208193;23;20044;-79
2023/06/03 02:24:08;;;;;;;14.57;11.32;;;;;;;;;;6208652;23;20032;-79
2023/06/03 02:26:34;;;;;;;14.25;11.57;;;;;;;;;;6208969;23;20051;-79
2023/06/03 02:29:00;;;;;;;14.98;11.27;;;;;;;;;;6209204;23;20079;-79
2023/06/03 02:31:26;;;;;;;11.77;10.57;;;;;;;;;;6209291;23;20531;-79
2023/06/03 02:33:52;;;;;;;13.88;10.25;;;;;;;;;;6208873;23;20019;-79
2023/06/03 02:36:18;;;;;;;13.88;10.55;;;;;;;;;;6209406;23;20016;-79
2023/06/03 02:38:47;;;;;;;11.85;8.70;;;;;;;;;;6209552;23;20005;-79
2023/06/03 02:41:13;;;;;;;11.32;8.50;;;;;;;;;;6210944;23;20091;-79
2023/06/03 02:43:39;;;;;;;9.38;7.70;;;;;;;;;;6210543;23;20079;-79
2023/06/03 02:46:05;;;;;;;15.60;7.03;;;;;;;;;;6210962;23;20511;-79
2023/06/03 02:48:31;;;;;;;10.30;7.05;;;;;;;;;;6210441;23;20017;-79
2023/06/03 02:50:57;;;;;;;13.95;7.68;;;;;;;;;;6211097;23;20023;-79
2023/06/03 02:53:23;;;;;;;11.20;6.90;;;;;;;;;;6210518;23;20728;-79
2023/06/03 02:55:49;;;;;;;10.38;7.25;;;;;;;;;;6210679;23;20668;-79
2023/06/03 02:58:15;;;;;;;8.70;6.63;;;;;;;;;;6212436;23;20011;-79
2023/06/03 03:00:42;;;;;;;11.00;7.25;;;;;;;;;;6212244;23;20008;-79
2023/06/03 03:03:09;;;;;;;10.73;7.25;;;;;;;;;;6210337;23;20048;-79
2023/06/03 03:05:35;;;;;;;10.88;6.50;;;;;;;;;;6210700;23;20024;-79
2023/06/03 03:08:03;;;;;;;10.75;7.45;;;;;;;;;;6210112;23;20036;-79
2023/06/03 03:10:29;;;;;;;10.98;6.45;;;;;;;;;;6210456;23;20119;-79
2023/06/03 03:12:55;;;;;;;8.75;6.70;;;;;;;;;;6210256;23;20013;-79
2023/06/03 03:15:21;;;;;;;9.55;6.78;;;;;;;;;;6210827;23;20013;-79
2023/06/03 03:17:47;;;;;;;9.63;6.22;;;;;;;;;;6210210;23;20021;-81
2023/06/03 03:20:13;;;;;;;9.77;7.05;;;;;;;;;;6210307;23;20023;-80
2023/06/03 03:22:40;;;;;;;10.23;7.50;;;;;;;;;;6212239;23;20005;-80
2023/06/03 03:25:06;;;;;;;11.05;6.85;;;;;;;;;;6211305;23;20344;-80
2023/06/03 03:27:32;;;;;;;11.20;7.20;;;;;;;;;;6212030;23;20015;-80
2023/06/03 03:30:01;;;;;;;11.93;7.82;;;;;;;;;;6211381;23;20020;-80
2023/06/03 03:32:27;;;;;;;10.10;8.63;;;;;;;;;;6209728;23;20008;-80
2023/06/03 03:35:11;;;;;;;13.18;7.22;;;;;;;;;;6209904;23;20047;-80
2023/06/03 03:37:37;;;;;;;11.98;6.70;;;;;;;;;;6210582;23;20741;-81
2023/06/03 03:40:05;;;;;;;8.90;7.65;;;;;;;;;;6209490;23;20019;-81
2023/06/03 03:42:32;;;;;;;9.88;7.90;;;;;;;;;;6209917;23;20012;-79
2023/06/03 03:45:00;;;;;;;11.85;8.20;;;;;;;;;;6210870;23;20128;-79
2023/06/03 03:47:27;;;;;;;9.65;7.45;;;;;;;;;;6209837;23;20028;-80
2023/06/03 03:49:53;;;;;;;9.13;7.78;;;;;;;;;;6210840;23;20031;-80
2023/06/03 04:03:23;;;;;;;11.00;7.70;;;;;;;;;;6180901;23;20055;-79
2023/06/03 04:06:00;;;;;;;11.23;6.95;;;;;;;;;;6153351;23;20017;-79
2023/06/03 04:08:51;;;;;;;11.63;6.80;;;;;;;;;;6113512;23;20496;-80
2023/06/03 04:11:22;;;;;;;11.88;7.78;;;;;;;;;;6143572;23;20776;-80
2023/06/03 04:14:05;;;;;;;17.23;12.63;;;;;;;;;;6143090;23;20022;-79
2023/06/03 04:16:52;;;;;;;13.40;10.52;;;;;;;;;;6119330;23;20010;-80
2023/06/03 04:19:30;;;;;;;10.50;7.25;;;;;;;;;;6118174;23;20069;-80
2023/06/03 04:21:57;;;;;;;11.85;8.18;;;;;;;;;;6118941;23;20018;-80
2023/06/03 04:24:26;;;;;;;13.35;8.63;;;;;;;;;;6118262;23;20040;-80
2023/06/03 04:26:53;;;;;;;12.00;7.80;;;;;;;;;;6143531;23;20650;-79
2023/06/03 04:29:19;;;;;;;13.13;8.32;;;;;;;;;;6118124;23;20548;-79
2023/06/03 04:31:45;;;;;;;11.23;7.50;;;;;;;;;;6118797;23;20013;-79
2023/06/03 04:34:11;;;;;;;13.38;8.15;;;;;;;;;;6170627;23;20760;-79
2023/06/03 04:36:37;;;;;;;10.38;8.00;;;;;;;;;;6182482;23;20001;-80
2023/06/03 04:39:08;;;;;;;8.98;6.10;;;;;;;;;;6210291;23;20016;-80
2023/06/03 04:41:34;;;;;;;12.48;6.30;;;;;;;;;;6211950;23;20012;-79
2023/06/03 04:44:01;;;;;;;9.13;5.68;;;;;;;;;;6183947;23;20043;-79
2023/06/03 04:46:29;;;;;;;8.55;5.45;;;;;;;;;;6211103;23;20028;-79
2023/06/03 04:49:02;;;;;;;9.60;5.63;;;;;;;;;;6210725;23;20087;-79
2023/06/03 04:51:29;;;;;;;9.57;5.05;;;;;;;;;;6184733;23;20009;-79
2023/06/03 04:53:56;;;;;;;8.35;5.50;;;;;;;;;;6210839;23;20008;-79
2023/06/03 04:56:24;;;;;;;9.18;4.63;;;;;;;;;;6184094;23;20043;-79
2023/06/03 04:58:54;;;;;;;7.70;4.85;;;;;;;;;;6211428;23;20439;-79
2023/06/03 05:01:21;;;;;;;10.93;5.65;;;;;;;;;;6210518;23;20013;-79
2023/06/03 05:03:47;;;;;;;9.63;4.55;;;;;;;;;;6210733;23;20364;-79
2023/06/03 05:06:13;;;;;;;8.05;4.40;;;;;;;;;;6183553;23;20012;-80
2023/06/03 05:08:40;;;;;;;11.43;5.50;;;;;;;;;;6211045;23;20020;-80
2023/06/03 05:11:06;;;;;;;9.02;7.10;;;;;;;;;;6210987;23;20031;-80
2023/06/03 05:13:32;;;;;;;11.18;6.80;;;;;;;;;;6210559;23;20008;-79
2023/06/03 05:15:58;;;;;;;9.77;5.05;;;;;;;;;;6185719;23;20008;-79
2023/06/03 05:18:24;;;;;;;9.65;4.93;;;;;;;;;;6183763;23;20027;-79
2023/06/03 05:20:50;;;;;;;12.82;4.30;;;;;;;;;;6211265;23;20008;-81
2023/06/03 05:23:16;;;;;;;6.03;3.85;;;;;;;;;;6183454;23;20467;-81
2023/06/03 05:25:42;;;;;;;11.20;4.30;;;;;;;;;;6210984;23;20629;-81
2023/06/03 05:28:08;;;;;;;13.60;4.32;;;;;;;;;;6183937;23;20023;-81
2023/06/03 05:30:34;;;;;;;9.07;5.40;;;;;;;;;;6210673;23;20092;-81
2023/06/03 05:33:00;;;;;;;8.52;5.57;;;;;;;;;;6182441;23;20095;-80
2023/06/03 05:35:26;;;;;;;14.80;7.53;;;;;;;;;;6183698;23;20047;-81
2023/06/03 05:37:52;;;;;;;9.48;5.10;;;;;;;;;;6182871;23;20012;-80
2023/06/03 05:40:18;;;;;;;9.43;5.53;;;;;;;;;;6209779;23;20428;-80
2023/06/03 05:42:47;;;;;;;8.05;4.82;;;;;;;;;;6210550;23;20428;-80
2023/06/03 05:45:13;;;;;;;10.27;5.15;;;;;;;;;;6209790;23;20005;-80
2023/06/03 05:47:39;;;;;;;10.75;5.15;;;;;;;;;;6184179;23;20020;-79
2023/06/03 05:50:06;;;;;;;10.70;4.97;;;;;;;;;;6210663;23;20012;-80
2023/06/03 05:52:32;;;;;;;8.52;5.45;;;;;;;;;;6184032;23;20424;-79
2023/06/03 05:54:58;;;;;;;9.68;5.43;;;;;;;;;;6183522;23;20011;-81
2023/06/03 05:57:24;;;;;;;6.63;4.10;;;;;;;;;;6184358;23;20063;-79
2023/06/03 06:11:48;;;;;;;;;;;;;;;;;;;;;
2023/06/03 06:29:19;;;;;;;7.38;3.88;;;;;;;;;;6192547;23;20017;-84
2023/06/03 06:31:45;;;;;;;8.90;4.03;;;;;;;;;;6213542;23;20004;-84
2023/06/03 06:34:13;;;;;;;9.20;4.25;;;;;;;;;;6186243;23;20013;-83
2023/06/03 06:36:42;;;;;;;5.32;3.80;;;;;;;;;;6216705;23;20036;-83
2023/06/03 06:39:26;;;;;;;9.40;4.22;;;;;;;;;;6215835;23;20004;-83
2023/06/03 06:41:52;;;;;;;6.57;3.63;;;;;;;;;;6187068;23;20765;-86
2023/06/03 06:44:18;;;;;;;7.05;3.28;;;;;;;;;;6186095;23;20413;-87
2023/06/03 06:46:45;;;;;;;7.90;3.10;;;;;;;;;;6189418;23;20032;-86
2023/06/03 06:49:12;;;;;;;7.88;3.58;;;;;;;;;;6186236;23;20022;-87
2023/06/03 07:05:23;;;;;;;6.68;3.58;;;;;;;;;;6186595;22;20035;-83
2023/06/03 07:20:28;;;;;;;5.72;3.33;;;;;;;;;;6181188;23;20087;-84
2023/06/03 07:33:56;;;;;;;7.80;3.88;;;;;;;;;;6182178;23;20064;-84
2023/06/03 07:36:47;;;;;;;5.65;3.58;;;;;;;;;;6156236;23;20013;-84
2023/06/03 07:39:50;;;;;;;5.63;3.43;;;;;;;;;;6181265;23;20009;-84
2023/06/03 07:42:32;;;;;;;7.57;3.63;;;;;;;;;;6178105;23;20028;-84
2023/06/03 07:45:01;;;;;;;;;;;;;;;;;;6151785;23;20016;-85
2023/06/03 07:47:37;;;;;;;7.50;2.85;;;;;;;;;;6154960;23;19951;-85
2023/06/03 07:50:36;;;;;;;7.13;3.25;;;;;;;;;;6152178;23;20092;-84
2023/06/03 07:53:16;;;;;;;4.50;2.72;;;;;;;;;;6151923;23;20040;-85
2023/06/03 07:59:14;;;;;;;;;;;;;;;;;;;;;
2023/06/03 08:14:57;;;;;;;7.72;3.13;;;;;;;;;;6179421;23;20077;-85
2023/06/03 08:21:30;;;;;;;5.95;3.90;;;;;;;;;;6181606;23;20121;-85
2023/06/03 08:23:36;;;;;;;7.38;3.33;;;;;;;;;;6158288;23;20012;-85
2023/06/03 08:26:03;;;;;;;7.63;3.10;;;;;;;;;;6152982;23;20029;-85
2023/06/03 08:31:40;;;;;;;7.18;3.65;;;;;;;;;;6181648;23;20190;-85
2023/06/03 08:34:08;;;;;;;;;;;;;;;;;;6182204;23;20005;-86
2023/06/03 08:37:06;;;;;;;5.93;3.53;;;;;;;;;;6154857;23;19904;-85
2023/06/03 08:39:32;;;;;;;4.90;2.67;;;;;;;;;;6146292;23;20020;-85
2023/06/03 08:42:09;;;;;;;7.85;3.50;;;;;;;;;;6178783;23;20027;-84
2023/06/03 08:44:57;;;;;;;6.57;3.10;;;;;;;;;;6154484;23;20614;-86
2023/06/03 08:47:44;;;;;;;5.78;3.50;;;;;;;;;;6154635;23;20020;-85
2023/06/03 09:06:23;;;;;;;15.93;3.85;;;;;;;;;;6165534;23;20302;-85
2023/06/03 09:08:51;;;;;;;7.82;3.75;;;;;;;;;;6182984;23;20395;-84
2023/06/03 09:11:17;;;;;;;11.13;3.63;;;;;;;;;;6183477;23;20100;-81
2023/06/03 09:13:43;;;;;;;6.85;3.50;;;;;;;;;;6183418;23;20008;-82
2023/06/03 09:16:10;;;;;;;5.32;3.15;;;;;;;;;;6210703;23;20004;-81
2023/06/03 09:18:36;;;;;;;10.93;3.30;;;;;;;;;;6211479;23;20109;-81
2023/06/03 09:21:02;;;;;;;8.35;3.45;;;;;;;;;;6211303;23;20008;-81
2023/06/03 09:23:29;;;;;;;6.22;3.10;;;;;;;;;;6211551;23;20012;-82
2023/06/03 09:25:55;;;;;;;8.32;3.60;;;;;;;;;;6211069;23;20079;-84
2023/06/03 09:28:21;;;;;;;6.15;3.80;;;;;;;;;;6188942;23;20119;-84
2023/06/03 09:30:47;;;;;;;5.20;3.47;;;;;;;;;;6214397;23;20095;-84
2023/06/03 09:33:13;;;;;;;6.93;3.67;;;;;;;;;;6188083;23;20040;-84
2023/06/03 09:35:39;;;;;;;8.40;3.50;;;;;;;;;;6212830;23;20405;-84
2023/06/03 09:38:05;;;;;;;7.88;3.65;;;;;;;;;;6189228;23;20023;-84
2023/06/03 09:40:32;;;;;;;5.65;3.38;;;;;;;;;;6216399;23;20004;-84
2023/06/03 09:42:58;;;;;;;5.93;3.55;;;;;;;;;;6215667;23;20004;-84
2023/06/03 09:45:32;;;;;;;7.82;3.95;;;;;;;;;;6188364;23;20551;-84
2023/06/03 09:47:59;;;;;;;8.07;3.70;;;;;;;;;;6188620;23;20039;-84
2023/06/03 09:50:27;;;;;;;9.80;4.05;;;;;;;;;;6188828;23;20039;-85
2023/06/03 09:52:53;;;;;;;7.43;3.70;;;;;;;;;;6188434;23;20091;-85
2023/06/03 09:55:20;;;;;;;7.18;3.50;;;;;;;;;;6188514;23;20111;-84
2023/06/03 09:58:04;;;;;;;8.60;3.88;;;;;;;;;;6188744;23;20008;-85
2023/06/03 10:00:31;;;;;;;6.47;3.47;;;;;;;;;;6215471;23;20403;-85
2023/06/03 10:03:07;;;;;;;5.82;3.28;;;;;;;;;;6215972;23;20011;-85
2023/06/03 10:05:34;;;;;;;7.18;3.90;;;;;;;;;;6215435;23;20360;-85
2023/06/03 10:08:02;;;;;;;7.68;3.97;;;;;;;;;;6188407;23;20020;-85
2023/06/03 10:10:28;;;;;;;7.18;3.58;;;;;;;;;;6186359;23;20008;-85
2023/06/03 10:12:55;;;;;;;6.43;3.50;;;;;;;;;;6188056;23;20447;-84
2023/06/03 10:15:35;;;;;;;7.00;3.72;;;;;;;;;;6189093;23;20031;-85
2023/06/03 10:18:01;;;;;;;5.85;3.53;;;;;;;;;;6189280;23;20027;-85
2023/06/03 10:20:37;;;;;;;6.50;3.80;;;;;;;;;;6189054;23;20087;-85
2023/06/03 10:23:04;;;;;;;9.32;4.05;;;;;;;;;;6188979;23;20016;-85
2023/06/03 10:25:32;;;;;;;7.70;4.45;;;;;;;;;;6189364;23;20015;-85
2023/06/03 10:27:59;;;;;;;7.03;4.18;;;;;;;;;;6189214;23;20101;-85
2023/06/03 10:30:26;;;;;;;7.38;4.53;;;;;;;;;;6188922;23;20012;-85
2023/06/03 10:32:53;;;;;;;4.70;3.05;;;;;;;;;;6189245;23;20008;-85
2023/06/03 10:35:21;;;;;;;6.13;3.55;;;;;;;;;;6215557;23;20005;-85
2023/06/03 10:37:47;;;;;;;6.90;2.83;;;;;;;;;;6215869;23;20013;-85
2023/06/03 10:40:14;;;;;;;5.80;3.00;;;;;;;;;;6189155;23;20008;-84
2023/06/03 10:42:41;;;;;;;5.75;3.17;;;;;;;;;;6186700;23;20014;-84
2023/06/03 10:45:07;;;;;;;5.55;3.17;;;;;;;;;;6214771;23;20012;-85
2023/06/03 10:47:34;;;;;;;5.10;3.05;;;;;;;;;;6187213;23;20017;-83
2023/06/03 10:50:19;;;;;;;6.97;3.45;;;;;;;;;;6188414;23;20432;-84
2023/06/03 10:52:51;;;;;;;8.25;3.55;;;;;;;;;;6188136;23;20016;-84
2023/06/03 10:55:17;;;;;;;5.40;2.78;;;;;;;;;;6187304;23;20444;-84
2023/06/03 10:57:48;;;;;;;5.60;2.92;;;;;;;;;;6188922;23;20087;-84
2023/06/03 11:00:37;;;;;;;4.30;2.60;;;;;;;;;;6186955;23;20108;-85
2023/06/03 11:03:16;;;;;;;5.50;3.03;;;;;;;;;;6188335;23;20021;-85
2023/06/03 11:05:53;;;;;;;7.65;3.53;;;;;;;;;;6188975;23;20005;-84
2023/06/03 11:08:37;;;;;;;8.30;3.55;;;;;;;;;;6192341;23;20025;-86
2023/06/03 11:11:27;;;;;;;5.18;3.33;;;;;;;;;;6159342;23;20032;-85
2023/06/03 11:17:19;;;;;;;;;;;;;;;;;;;;;
2023/06/03 11:19:49;;;;;;;5.10;2.75;;;;;;;;;;6184182;23;20778;-87
2023/06/03 11:22:37;;;;;;;4.93;2.83;;;;;;;;;;6159870;23;20024;-85
2023/06/03 11:25:22;;;;;;;6.95;3.05;;;;;;;;;;6156137;23;20028;-87
2023/06/03 11:27:48;;;;;;;4.22;2.40;;;;;;;;;;6166648;23;20035;-84
2023/06/03 11:30:20;;;;;;;5.10;3.08;;;;;;;;;;6184486;23;20020;-85
2023/06/03 11:33:15;;;;;;;;;;;;;;;;;;;;;
2023/06/03 11:38:46;;;;;;;4.55;2.55;;;;;;;;;;6195541;23;20104;-86
2023/06/03 11:44:52;;;;;;;7.25;2.55;;;;;;;;;;6130258;23;20019;-86
2023/06/03 11:50:42;;;;;;;7.53;3.00;;;;;;;;;;6064403;23;20086;-86
2023/06/03 11:53:46;;;;;;;4.60;2.53;;;;;;;;;;6037876;23;20070;-86
2023/06/03 11:56:31;;;;;;;4.85;2.40;;;;;;;;;;5866177;24;20033;-86
2023/06/03 11:59:15;;;;;;;4.50;2.63;;;;;;;;;;5840185;24;20171;-86
2023/06/03 12:02:05;;;;;;;4.90;2.35;;;;;;;;;;6006666;23;20060;-86
2023/06/03 12:04:34;;;;;;;5.50;2.30;;;;;;;;;;6033818;23;20034;-86
2023/06/03 15:37:40;;;;;;;8.35;3.72;;;;;;;;;;6175186;23;20375;-83
2023/06/03 15:40:07;;;;;;;12.15;7.82;;;;;;;;;;6182524;23;20013;-82
2023/06/03 15:42:33;;;;;;;11.10;8.27;;;;;;;;;;6183037;23;20024;-86
2023/06/03 15:44:59;;;;;;;14.32;5.57;;;;;;;;;;6157142;23;20017;-86
2023/06/03 15:47:25;;;;;;;9.57;4.35;;;;;;;;;;6185045;23;20001;-87
2023/06/03 15:49:51;;;;;;;8.82;3.92;;;;;;;;;;6159053;23;20066;-87
2023/06/03 15:52:17;;;;;;;10.30;4.13;;;;;;;;;;6161008;23;20005;-87
2023/06/03 15:54:43;;;;;;;9.68;3.95;;;;;;;;;;6157217;23;20013;-85
2023/06/03 16:02:24;;;;;;;6.05;2.33;;;;;;;;;;6174487;23;20067;-84
2023/06/03 16:04:50;;;;;;;8.38;2.28;;;;;;;;;;6188634;23;20071;-84
2023/06/03 16:07:16;;;;;;;6.07;2.25;;;;;;;;;;6186556;23;20017;-83
2023/06/03 16:09:42;;;;;;;6.78;2.47;;;;;;;;;;6214135;23;20012;-82
2023/06/03 16:12:08;;;;;;;10.60;2.67;;;;;;;;;;6213374;23;20362;-81
2023/06/03 16:14:35;;;;;;;7.05;3.90;;;;;;;;;;6212879;23;20373;-83
2023/06/03 16:17:01;;;;;;;5.57;2.60;;;;;;;;;;6213867;23;20009;-83
2023/06/03 16:19:27;;;;;;;9.77;2.72;;;;;;;;;;6214518;23;20004;-82
2023/06/03 16:21:53;;;;;;;5.50;3.10;;;;;;;;;;6213046;23;20111;-82
2023/06/03 16:24:20;;;;;;;5.55;3.00;;;;;;;;;;6185272;23;20016;-81
2023/06/03 16:26:46;;;;;;;7.38;3.22;;;;;;;;;;6212388;23;20646;-82
2023/06/03 16:29:12;;;;;;;6.53;3.22;;;;;;;;;;6189103;23;20035;-82
2023/06/03 16:31:38;;;;;;;6.78;3.28;;;;;;;;;;6215655;23;20004;-83
2023/06/03 16:34:07;;;;;;;6.10;3.00;;;;;;;;;;6213072;23;20005;-82
2023/06/03 16:36:33;;;;;;;5.10;2.88;;;;;;;;;;6186339;23;20047;-85
2023/06/03 16:38:59;;;;;;;5.25;3.13;;;;;;;;;;6212959;23;20013;-83
2023/06/03 16:41:27;;;;;;;7.40;3.10;;;;;;;;;;6185442;23;20016;-86
2023/06/03 16:43:54;;;;;;;6.70;3.03;;;;;;;;;;6185871;23;20012;-89
2023/06/03 16:46:20;;;;;;;6.18;2.65;;;;;;;;;;6185644;23;20107;-89
2023/06/03 16:51:50;;;;;;;4.05;2.17;;;;;;;;;;6198330;23;20837;-86
2023/06/03 16:54:16;;;;;;;5.40;2.60;;;;;;;;;;6184810;23;20752;-89
2023/06/03 16:56:42;;;;;;;6.05;2.80;;;;;;;;;;6185207;23;20027;-83
2023/06/03 17:14:45;;;;;;;11.73;6.95;;;;;;;;;;6211346;23;20408;-82
2023/06/03 17:17:11;;;;;;;12.93;6.00;;;;;;;;;;6185741;23;20005;-81
2023/06/03 17:33:04;;;;;;;21.42;14.90;;;;;;;;;;6209267;23;20024;-89
2023/06/03 17:35:30;;;;;;;6.95;3.28;;;;;;;;;;6185034;23;20000;-84
2023/06/03 17:37:56;;;;;;;10.65;5.85;;;;;;;;;;6211947;23;20389;-84
2023/06/03 17:40:23;;;;;;;8.20;4.28;;;;;;;;;;6185161;23;20097;-85
2023/06/03 17:42:49;;;;;;;5.68;3.10;;;;;;;;;;6211383;23;20024;-80
2023/06/03 17:45:15;;;;;;;5.97;3.40;;;;;;;;;;6211241;23;20008;-80
2023/06/03 17:47:41;;;;;;;7.03;3.60;;;;;;;;;;6210578;23;20013;-81
2023/06/03 17:50:07;;;;;;;13.45;4.28;;;;;;;;;;6211006;23;20017;-80
2023/06/03 17:52:33;;;;;;;6.38;2.97;;;;;;;;;;6184279;23;20333;-80
2023/06/03 17:54:59;;;;;;;8.38;3.25;;;;;;;;;;6210791;23;20298;-82
2023/06/03 17:57:25;;;;;;;6.53;3.20;;;;;;;;;;6211525;23;20011;-81
2023/06/03 17:59:51;;;;;;;6.18;3.00;;;;;;;;;;6211383;23;20051;-80
2023/06/03 18:02:18;;;;;;;6.50;2.88;;;;;;;;;;6211151;23;20017;-80
2023/06/03 18:04:44;;;;;;;6.07;3.22;;;;;;;;;;6211813;23;20040;-81
2023/06/03 18:07:10;;;;;;;6.10;3.20;;;;;;;;;;6185186;23;20027;-81
2023/06/03 18:09:37;;;;;;;6.82;3.63;;;;;;;;;;6187299;23;20011;-82
2023/06/03 18:12:04;;;;;;;6.82;3.63;;;;;;;;;;6215365;23;20012;-81
2023/06/03 18:14:30;;;;;;;7.78;3.95;;;;;;;;;;6214401;23;20028;-85
2023/06/03 18:16:56;;;;;;;8.88;3.47;;;;;;;;;;6190234;23;20013;-85
2023/06/03 18:19:22;;;;;;;9.93;3.42;;;;;;;;;;6220168;23;20012;-84
2023/06/03 18:21:49;;;;;;;8.02;4.00;;;;;;;;;;6192090;23;20009;-83
2023/06/03 18:24:15;;;;;;;9.90;3.20;;;;;;;;;;6214659;23;20368;-82
2023/06/03 18:26:41;;;;;;;6.80;3.42;;;;;;;;;;6188327;23;20395;-85
2023/06/03 18:29:07;;;;;;;6.50;3.58;;;;;;;;;;6191530;23;20337;-85
2023/06/03 18:31:36;;;;;;;5.78;2.80;;;;;;;;;;6215640;23;20004;-81
2023/06/03 18:34:02;;;;;;;7.65;3.00;;;;;;;;;;6190435;23;20031;-81
2023/06/03 18:36:28;;;;;;;6.72;2.60;;;;;;;;;;6217128;23;20026;-82
2023/06/03 18:38:54;;;;;;;4.32;2.80;;;;;;;;;;6217496;23;20000;-81
2023/06/03 18:41:20;;;;;;;3.80;2.03;;;;;;;;;;6218038;23;20439;-82
2023/06/03 18:43:46;;;;;;;4.95;2.33;;;;;;;;;;6216138;23;20350;-80
2023/06/03 18:46:12;;;;;;;5.90;3.45;;;;;;;;;;6214637;23;20073;-82
2023/06/03 18:48:38;;;;;;;7.93;3.25;;;;;;;;;;6215416;23;20013;-81
2023/06/03 18:51:04;;;;;;;5.60;3.58;;;;;;;;;;6215738;23;20353;-82
2023/06/03 18:53:30;;;;;;;7.00;3.70;;;;;;;;;;6219006;23;20020;-82
2023/06/03 18:55:56;;;;;;;4.53;2.78;;;;;;;;;;6217257;23;20005;-81
2023/06/03 18:58:22;;;;;;;8.63;3.40;;;;;;;;;;6217514;23;20012;-82
2023/06/03 19:00:50;;;;;;;5.10;3.22;;;;;;;;;;6216377;23;20099;-82
2023/06/03 19:03:16;;;;;;;6.82;3.72;;;;;;;;;;6215366;23;20045;-84
2023/06/03 19:05:42;;;;;;;5.60;2.95;;;;;;;;;;6187517;23;20012;-84
2023/06/03 19:08:08;;;;;;;7.50;4.88;;;;;;;;;;6186983;23;20463;-84
2023/06/03 19:10:34;;;;;;;9.63;4.85;;;;;;;;;;6187301;23;20654;-84
2023/06/03 19:13:00;;;;;;;8.68;3.45;;;;;;;;;;6186583;23;20494;-83
2023/06/03 19:15:26;;;;;;;9.45;3.78;;;;;;;;;;6187266;23;20009;-84
2023/06/03 19:17:52;;;;;;;9.43;3.67;;;;;;;;;;6186287;23;20016;-83
2023/06/03 19:20:21;;;;;;;8.95;6.00;;;;;;;;;;6185978;23;20489;-84
2023/06/03 19:22:47;;;;;;;8.65;5.15;;;;;;;;;;6184390;23;20447;-84
2023/06/03 19:42:29;;;;;;;6.70;3.60;;;;;;;;;;6184244;23;20036;-83
2023/06/03 19:45:35;;;;;;;8.35;4.05;;;;;;;;;;6147727;23;20021;-83
2023/06/03 20:13:53;;;;;;;;;;;;;;;;;;;;;
2023/06/03 20:38:48;;;;;;;;;;;;;;;;;;;;;
2023/06/03 21:12:18;;;;;;;7.88;4.18;;;;;;;;;;6180716;23;20017;-83
2023/06/03 22:13:21;;;;;;;;;;;;;;;;;;;;;
2023/06/03 22:23:04;;;;;;;9.98;5.05;;;;;;;;;;6206274;22;20814;-83
2023/06/03 22:32:10;;;;;;;7.13;4.25;;;;;;;;;;6174347;23;20125;-83
2023/06/03 22:35:13;;;;;;;8.00;3.70;;;;;;;;;;6146917;23;20100;-83
